Time;durP1;ratioP1;P1;durP2;ratioP2;P2;SDS_P1;SDS_P2;PMS_P1;PMS_P2;Temp;Humidity;BMP_temperature;BMP_pressure;BME280_temperature;BME280_humidity;BME280_pressure;Samples;Min_cycle;Max_cycle;Signal;HPM_P1;HPM_P2
2023/08/04 00:00:37;;;;;;;5.93;2.63;;;16.00;99.90;;;;;;5008477;28;20281;-81
2023/08/04 00:03:04;;;;;;;7.68;2.90;;;15.70;99.90;;;;;;5006618;28;20194;-82
2023/08/04 00:05:30;;;;;;;6.53;2.63;;;15.90;99.90;;;;;;5009038;28;20294;-80
2023/08/04 00:07:57;;;;;;;5.83;3.13;;;15.80;99.90;;;;;;5008978;28;20242;-81
2023/08/04 00:10:24;;;;;;;7.60;3.00;;;15.80;99.90;;;;;;5008637;28;20598;-82
2023/08/04 00:12:51;;;;;;;4.93;2.80;;;15.90;99.90;;;;;;5001096;28;20269;-81
2023/08/04 00:15:18;;;;;;;6.88;3.17;;;15.60;99.90;;;;;;5012704;28;20612;-81
2023/08/04 00:17:45;;;;;;;5.23;2.60;;;16.00;99.90;;;;;;5012449;28;20214;-80
2023/08/04 00:20:12;;;;;;;8.68;3.05;;;15.90;99.90;;;;;;5012467;28;20203;-80
2023/08/04 00:22:40;;;;;;;5.05;2.72;;;15.80;99.90;;;;;;5013045;28;20642;-80
2023/08/04 00:25:09;;;;;;;6.22;2.55;;;15.90;99.90;;;;;;5012294;28;20211;-80
2023/08/04 00:27:36;;;;;;;5.95;3.28;;;15.80;99.90;;;;;;5012055;28;20241;-80
2023/08/04 00:30:03;;;;;;;4.90;3.00;;;15.80;99.90;;;;;;4994842;28;20210;-81
2023/08/04 00:32:30;;;;;;;4.65;2.53;;;15.80;99.90;;;;;;5011547;28;20190;-80
2023/08/04 00:34:57;;;;;;;5.45;2.72;;;15.80;99.90;;;;;;5012421;28;20690;-80
2023/08/04 00:37:24;;;;;;;9.30;3.00;;;15.70;99.90;;;;;;5012288;28;20594;-79
2023/08/04 00:39:51;;;;;;;7.20;2.97;;;15.70;99.90;;;;;;5012045;28;20186;-81
2023/08/04 00:42:18;;;;;;;8.35;3.35;;;15.60;99.90;;;;;;5009839;28;20223;-81
2023/08/04 00:44:45;;;;;;;6.37;2.83;;;15.30;99.90;;;;;;4999915;28;20198;-82
2023/08/04 00:47:12;;;;;;;6.23;3.43;;;15.50;99.90;;;;;;5011671;28;20217;-81
2023/08/04 00:49:40;;;;;;;9.53;3.37;;;15.40;99.90;;;;;;4999753;28;20313;-80
2023/08/04 00:52:08;;;;;;;11.73;3.27;;;15.60;99.90;;;;;;5011105;28;20203;-80
2023/08/04 00:54:36;;;;;;;9.07;3.67;;;15.40;99.90;;;;;;5012744;28;20214;-81
2023/08/04 00:57:04;;;;;;;5.97;2.63;;;15.30;99.90;;;;;;5011000;28;20210;-81
2023/08/04 00:59:31;;;;;;;5.37;2.83;;;15.30;99.90;;;;;;5014067;28;20663;-80
2023/08/04 01:01:58;;;;;;;7.00;2.90;;;15.20;99.90;;;;;;5012170;28;20236;-81
2023/08/04 01:04:26;;;;;;;3.80;2.60;;;15.20;99.90;;;;;;5017262;28;20550;-80
2023/08/04 01:07:08;;;;;;;6.87;3.03;;;15.20;99.90;;;;;;5005349;28;20220;-80
2023/08/04 01:09:49;;;;;;;5.40;2.90;;;15.20;99.90;;;;;;5012047;28;20666;-80
2023/08/04 01:12:48;;;;;;;8.87;3.00;;;15.10;99.90;;;;;;5010727;28;20226;-82
2023/08/04 01:15:16;;;;;;;6.27;3.77;;;15.10;99.90;;;;;;5006561;28;20210;-82
2023/08/04 01:17:42;;;;;;;5.17;3.13;;;15.10;99.90;;;;;;5011573;28;20667;-81
2023/08/04 01:20:09;;;;;;;6.10;2.90;;;15.00;99.90;;;;;;5006952;28;20506;-80
2023/08/04 01:22:36;;;;;;;9.67;3.07;;;15.00;99.90;;;;;;4995866;28;20205;-83
2023/08/04 01:25:04;;;;;;;7.43;3.10;;;15.00;99.90;;;;;;4991148;28;20210;-82
2023/08/04 01:27:37;;;;;;;7.53;3.40;;;15.00;99.90;;;;;;5011012;28;20234;-82
2023/08/04 01:30:09;;;;;;;6.40;3.37;;;15.00;99.90;;;;;;5010434;28;20605;-81
2023/08/04 01:32:37;;;;;;;6.73;3.33;;;15.00;99.90;;;;;;5006319;28;20195;-81
2023/08/04 01:35:07;;;;;;;10.07;3.53;;;15.00;99.90;;;;;;5008316;28;20214;-80
2023/08/04 01:37:34;;;;;;;7.37;3.20;;;15.00;99.90;;;;;;5011193;28;20234;-82
2023/08/04 01:40:01;;;;;;;9.07;3.87;;;14.90;99.90;;;;;;5010388;28;20539;-81
2023/08/04 01:42:28;;;;;;;10.90;3.90;;;14.90;99.90;;;;;;4993510;28;20718;-81
2023/08/04 01:44:55;;;;;;;10.13;4.00;;;14.90;99.90;;;;;;5007631;28;20274;-81
2023/08/04 01:47:22;;;;;;;11.53;5.10;;;14.90;99.90;;;;;;5002379;28;20728;-82
2023/08/04 01:49:48;;;;;;;9.70;4.23;;;14.90;99.90;;;;;;5010524;28;20280;-81
2023/08/04 01:52:15;;;;;;;7.40;4.40;;;14.80;99.90;;;;;;5005331;28;20690;-82
2023/08/04 01:54:42;;;;;;;7.70;4.70;;;14.70;99.90;;;;;;5003746;28;20338;-81
2023/08/04 01:57:09;;;;;;;12.27;5.40;;;14.70;99.90;;;;;;5007897;28;20301;-80
2023/08/04 01:59:36;;;;;;;9.10;4.70;;;14.60;99.90;;;;;;5002708;28;20199;-81
2023/08/04 02:02:03;;;;;;;13.27;5.10;;;14.70;99.90;;;;;;5006667;28;20202;-81
2023/08/04 02:04:29;;;;;;;11.17;5.53;;;14.60;99.90;;;;;;5009642;28;20198;-81
2023/08/04 02:06:56;;;;;;;12.30;5.73;;;14.70;99.90;;;;;;5005115;28;20230;-81
2023/08/04 02:09:27;;;;;;;13.83;5.50;;;14.70;99.90;;;;;;4992920;28;20234;-81
2023/08/04 02:11:55;;;;;;;9.07;5.27;;;14.70;99.90;;;;;;4992536;28;20224;-81
2023/08/04 02:14:22;;;;;;;10.97;6.10;;;14.80;99.90;;;;;;4993334;28;20198;-81
2023/08/04 02:16:49;;;;;;;15.60;5.93;;;14.80;99.90;;;;;;5010726;28;20207;-81
2023/08/04 02:19:16;;;;;;;10.67;5.17;;;14.80;99.90;;;;;;5010421;28;20198;-81
2023/08/04 02:21:42;;;;;;;9.27;5.37;;;14.90;99.90;;;;;;5010765;28;20202;-80
2023/08/04 02:24:09;;;;;;;11.97;5.57;;;14.90;99.90;;;;;;5010354;28;20207;-81
2023/08/04 02:26:36;;;;;;;15.60;6.30;;;14.90;99.90;;;;;;5010165;28;20621;-81
2023/08/04 02:29:03;;;;;;;11.43;5.10;;;14.90;99.90;;;;;;5010323;28;20756;-80
2023/08/04 02:31:32;;;;;;;13.20;5.57;;;15.00;99.90;;;;;;5010395;28;20198;-81
2023/08/04 02:33:59;;;;;;;11.97;5.30;;;14.90;99.90;;;;;;4992220;28;20310;-80
2023/08/04 02:36:32;;;;;;;9.37;5.23;;;14.80;99.90;;;;;;5010642;28;20264;-81
2023/08/04 02:38:59;;;;;;;12.13;5.20;;;14.90;99.90;;;;;;5010503;28;20668;-81
2023/08/04 02:41:26;;;;;;;8.50;5.27;;;15.00;99.90;;;;;;4992241;28;20215;-82
2023/08/04 02:43:53;;;;;;;9.60;5.27;;;15.00;99.90;;;;;;5006820;28;20690;-81
2023/08/04 02:46:25;;;;;;;12.97;5.30;;;15.10;99.90;;;;;;4993470;28;20210;-82
2023/08/04 02:48:53;;;;;;;10.10;4.97;;;15.10;99.90;;;;;;4992775;28;20272;-81
2023/08/04 02:51:19;;;;;;;11.90;4.90;;;15.10;99.90;;;;;;5010497;28;20210;-83
2023/08/04 02:53:48;;;;;;;10.40;5.60;;;15.10;99.90;;;;;;5010340;28;20234;-81
2023/08/04 02:56:18;;;;;;;15.10;4.73;;;15.20;99.90;;;;;;5010079;28;20206;-80
2023/08/04 02:58:47;;;;;;;11.10;5.37;;;15.10;99.90;;;;;;5010106;28;20210;-83
2023/08/04 03:01:14;;;;;;;8.43;5.40;;;15.20;99.90;;;;;;4991702;28;20213;-83
2023/08/04 03:03:41;;;;;;;10.63;5.30;;;15.10;99.90;;;;;;5009784;28;20290;-81
2023/08/04 03:06:08;;;;;;;10.00;4.40;;;15.20;99.90;;;;;;5008891;28;20230;-81
2023/08/04 03:08:35;;;;;;;12.93;5.13;;;15.10;99.90;;;;;;4991770;28;20229;-81
2023/08/04 03:11:08;;;;;;;10.47;5.30;;;15.20;99.90;;;;;;5008762;28;20218;-80
2023/08/04 03:13:35;;;;;;;7.43;4.93;;;15.20;99.90;;;;;;5009245;28;20203;-81
2023/08/04 03:16:05;;;;;;;11.97;5.10;;;15.20;99.90;;;;;;5009184;28;20210;-82
2023/08/04 03:18:32;;;;;;;9.67;5.50;;;15.20;99.90;;;;;;5009712;28;20963;-81
2023/08/04 03:21:03;;;;;;;8.77;4.53;;;15.20;99.90;;;;;;5009129;28;20222;-82
2023/08/04 03:23:30;;;;;;;12.43;5.37;;;15.20;99.90;;;;;;4991885;28;20289;-81
2023/08/04 03:25:57;;;;;;;11.63;4.87;;;15.10;99.90;;;;;;4991399;28;20556;-81
2023/08/04 03:28:24;;;;;;;12.77;4.97;;;15.20;99.90;;;;;;5009490;28;20217;-82
2023/08/04 03:30:51;;;;;;;7.83;4.30;;;15.20;99.90;;;;;;4991838;28;20221;-82
2023/08/04 03:33:19;;;;;;;9.70;4.20;;;15.30;99.90;;;;;;5010371;28;20565;-80
2023/08/04 03:35:46;;;;;;;8.37;4.40;;;15.20;99.90;;;;;;4996298;28;20230;-82
2023/08/04 03:38:13;;;;;;;14.73;5.30;;;15.20;99.90;;;;;;5016545;28;20198;-81
2023/08/04 03:40:40;;;;;;;13.20;4.57;;;15.20;99.90;;;;;;5033391;28;20183;-82
2023/08/04 03:43:07;;;;;;;9.98;4.93;;;15.30;99.90;;;;;;5033937;28;20226;-80
2023/08/04 03:45:34;;;;;;;8.97;4.00;;;15.30;99.90;;;;;;5033778;28;20199;-80
2023/08/04 03:48:01;;;;;;;8.80;4.27;;;15.30;99.90;;;;;;5031224;28;20918;-81
2023/08/04 03:50:28;;;;;;;10.97;4.50;;;15.20;99.90;;;;;;5014233;28;20219;-83
2023/08/04 03:52:57;;;;;;;10.50;4.83;;;15.30;99.90;;;;;;5014320;28;20260;-81
2023/08/04 03:55:24;;;;;;;11.30;4.90;;;15.10;99.90;;;;;;4995828;28;20292;-81
2023/08/04 03:57:51;;;;;;;14.40;4.90;;;15.10;99.90;;;;;;5013167;28;20222;-82
2023/08/04 04:00:17;;;;;;;10.23;4.50;;;15.10;99.90;;;;;;5012857;28;20210;-81
2023/08/04 04:02:44;;;;;;;9.20;4.70;;;15.10;99.90;;;;;;5013019;28;20197;-80
2023/08/04 04:05:11;;;;;;;9.87;5.10;;;15.20;99.90;;;;;;5013190;28;20206;-81
2023/08/04 04:07:38;;;;;;;11.70;4.93;;;15.20;99.90;;;;;;5007860;28;20257;-81
2023/08/04 04:10:06;;;;;;;11.87;5.83;;;15.10;99.90;;;;;;5011652;28;20234;-81
2023/08/04 04:12:35;;;;;;;11.67;4.90;;;15.20;99.90;;;;;;5006086;28;20218;-81
2023/08/04 04:15:06;;;;;;;11.98;5.38;;;15.10;99.90;;;;;;5000688;28;20290;-81
2023/08/04 04:17:33;;;;;;;11.17;5.30;;;15.20;99.90;;;;;;5011657;28;20203;-82
2023/08/04 04:20:00;;;;;;;12.45;5.65;;;15.20;99.90;;;;;;5011457;28;20276;-81
2023/08/04 04:22:27;;;;;;;8.10;5.03;;;15.20;99.90;;;;;;5011610;28;20293;-82
2023/08/04 04:24:53;;;;;;;8.95;5.22;;;15.20;99.90;;;;;;5012491;28;20214;-82
2023/08/04 04:27:20;;;;;;;11.20;5.40;;;15.20;99.90;;;;;;4999425;28;20583;-81
2023/08/04 04:29:47;;;;;;;12.20;5.57;;;15.00;99.90;;;;;;5010974;28;20599;-82
2023/08/04 04:32:15;;;;;;;10.10;5.78;;;15.30;99.90;;;;;;5011431;28;20198;-80
2023/08/04 04:34:42;;;;;;;16.52;5.85;;;15.30;99.90;;;;;;5000877;28;20663;-81
2023/08/04 04:37:09;;;;;;;8.68;5.22;;;15.40;99.90;;;;;;4996651;28;20270;-81
2023/08/04 04:39:36;;;;;;;9.75;5.15;;;15.40;99.90;;;;;;5011172;28;20210;-81
2023/08/04 04:42:05;;;;;;;10.70;5.15;;;15.40;99.90;;;;;;5008581;28;20211;-82
2023/08/04 04:44:32;;;;;;;12.77;5.40;;;15.50;99.90;;;;;;5012700;28;20206;-82
2023/08/04 04:46:58;;;;;;;9.40;5.55;;;15.60;99.90;;;;;;5012641;28;20276;-81
2023/08/04 04:49:25;;;;;;;11.65;5.60;;;15.60;99.90;;;;;;5005866;28;20626;-82
2023/08/04 04:51:52;;;;;;;10.32;4.97;;;15.60;99.90;;;;;;5007742;28;20205;-82
2023/08/04 04:54:19;;;;;;;9.48;5.05;;;15.80;99.90;;;;;;5001915;28;20225;-81
2023/08/04 04:56:47;;;;;;;10.02;5.47;;;15.70;99.90;;;;;;5005851;28;20214;-81
2023/08/04 04:59:14;;;;;;;8.13;4.63;;;15.70;99.90;;;;;;5000135;28;20278;-80
2023/08/04 05:01:41;;;;;;;9.93;4.93;;;15.80;99.90;;;;;;5010311;28;20218;-82
2023/08/04 05:04:08;;;;;;;8.38;5.15;;;15.80;99.90;;;;;;5009209;28;20284;-82
2023/08/04 05:06:35;;;;;;;8.57;4.18;;;15.90;99.90;;;;;;4994427;28;20330;-82
2023/08/04 05:09:03;;;;;;;6.75;4.47;;;15.90;99.90;;;;;;4984397;28;20220;-84
2023/08/04 05:11:30;;;;;;;9.70;4.65;;;15.90;99.90;;;;;;4991399;28;20339;-81
2023/08/04 05:13:57;;;;;;;10.00;4.78;;;15.90;99.90;;;;;;4991195;28;20211;-82
2023/08/04 05:16:24;;;;;;;6.97;4.30;;;16.00;99.90;;;;;;4988846;28;20195;-81
2023/08/04 05:18:51;;;;;;;7.00;4.68;;;16.20;99.90;;;;;;4972627;28;20290;-82
2023/08/04 05:21:17;;;;;;;5.68;4.05;;;16.10;99.90;;;;;;4991566;28;20203;-82
2023/08/04 05:23:44;;;;;;;4.95;3.80;;;16.10;99.90;;;;;;4991447;28;20207;-81
2023/08/04 05:26:11;;;;;;;5.95;3.92;;;16.20;99.90;;;;;;4991735;28;20203;-82
2023/08/04 05:28:38;;;;;;;5.28;3.95;;;16.20;99.90;;;;;;4991664;28;20207;-83
2023/08/04 05:31:05;;;;;;;5.35;3.80;;;16.30;99.90;;;;;;4973678;28;20234;-81
2023/08/04 05:33:32;;;;;;;7.03;3.95;;;16.40;99.90;;;;;;4991701;28;20236;-82
2023/08/04 05:36:00;;;;;;;5.93;3.60;;;16.30;99.90;;;;;;4991856;28;20206;-81
2023/08/04 05:38:26;;;;;;;5.32;4.10;;;16.40;99.90;;;;;;4985359;28;20294;-82
2023/08/04 05:40:54;;;;;;;6.22;3.95;;;16.40;99.90;;;;;;4987491;28;20262;-82
2023/08/04 05:43:23;;;;;;;6.00;3.85;;;16.50;99.90;;;;;;4989766;28;20227;-80
2023/08/04 05:45:50;;;;;;;5.47;3.63;;;16.50;99.90;;;;;;4974121;28;20257;-86
2023/08/04 05:48:17;;;;;;;11.85;4.53;;;16.50;99.90;;;;;;4985212;28;20686;-81
2023/08/04 05:50:44;;;;;;;5.50;3.47;;;16.60;99.90;;;;;;4989676;28;20235;-80
2023/08/04 05:53:11;;;;;;;5.75;3.33;;;16.60;99.90;;;;;;4990276;28;20215;-79
2023/08/04 05:55:38;;;;;;;4.95;3.53;;;16.70;99.90;;;;;;4990548;28;20206;-80
2023/08/04 05:58:05;;;;;;;6.50;3.70;;;16.80;99.90;;;;;;4989754;28;20224;-81
2023/08/04 06:00:32;;;;;;;9.38;3.53;;;16.90;99.90;;;;;;4990063;28;20210;-81
2023/08/04 06:02:59;;;;;;;6.97;3.35;;;17.10;99.90;;;;;;4990552;28;20632;-80
2023/08/04 06:05:27;;;;;;;5.18;3.40;;;17.40;99.90;;;;;;4990887;28;20668;-81
2023/08/04 06:07:54;;;;;;;3.78;2.72;;;18.00;99.90;;;;;;5004920;28;20321;-82
2023/08/04 06:10:21;;;;;;;4.68;2.80;;;18.20;99.90;;;;;;5009125;28;20222;-82
2023/08/04 06:12:48;;;;;;;6.18;2.55;;;18.40;99.90;;;;;;5001198;28;20227;-84
2023/08/04 06:15:16;;;;;;;4.10;2.47;;;18.40;99.90;;;;;;5003928;28;20698;-84
2023/08/04 06:17:43;;;;;;;5.53;2.55;;;18.30;99.90;;;;;;5007100;28;20202;-82
2023/08/04 06:20:10;;;;;;;5.25;2.65;;;18.30;99.90;;;;;;5010913;28;20217;-84
2023/08/04 06:22:38;;;;;;;5.50;2.53;;;18.20;99.90;;;;;;5005838;28;20423;-83
2023/08/04 06:25:05;;;;;;;6.15;2.60;;;18.20;99.90;;;;;;5010562;28;20663;-84
2023/08/04 06:27:35;;;;;;;4.32;2.50;;;18.20;99.90;;;;;;5010311;28;20444;-84
2023/08/04 06:30:02;;;;;;;3.83;2.63;;;18.30;99.90;;;;;;5008844;28;20222;-83
2023/08/04 06:32:28;;;;;;;6.85;2.50;;;18.30;99.90;;;;;;5017127;28;20213;-83
2023/08/04 06:34:56;;;;;;;5.97;2.67;;;18.40;99.90;;;;;;5023792;28;20667;-83
2023/08/04 06:37:24;;;;;;;3.47;2.20;;;18.40;99.90;;;;;;5024738;28;20247;-82
2023/08/04 06:39:52;;;;;;;2.92;2.20;;;18.50;99.90;;;;;;5025113;28;20210;-83
2023/08/04 06:42:19;;;;;;;2.85;2.33;;;18.40;99.90;;;;;;5016829;28;20218;-85
2023/08/04 06:44:46;;;;;;;7.60;2.17;;;18.50;99.90;;;;;;5011349;28;20398;-81
2023/08/04 06:47:14;;;;;;;3.75;2.42;;;18.50;99.90;;;;;;5009654;28;20215;-83
2023/08/04 06:49:42;;;;;;;4.72;2.20;;;18.60;99.90;;;;;;5010159;28;20226;-84
2023/08/04 06:52:09;;;;;;;5.55;2.53;;;18.70;99.90;;;;;;5007578;28;20721;-83
2023/08/04 06:54:37;;;;;;;3.60;2.03;;;18.70;99.90;;;;;;5009437;28;20205;-83
2023/08/04 06:57:06;;;;;;;4.32;2.30;;;18.90;99.90;;;;;;5007959;28;20612;-84
2023/08/04 06:59:33;;;;;;;3.22;2.15;;;19.00;99.90;;;;;;5006024;28;20536;-82
2023/08/04 07:02:01;;;;;;;6.43;2.28;;;19.00;99.90;;;;;;5010184;28;20212;-83
2023/08/04 07:04:27;;;;;;;3.75;2.30;;;19.20;99.90;;;;;;5009540;28;20663;-80
2023/08/04 07:06:56;;;;;;;2.28;2.00;;;19.20;99.90;;;;;;5001819;28;20286;-80
2023/08/04 07:09:23;;;;;;;3.63;1.77;;;19.30;99.90;;;;;;4991777;28;20481;-83
2023/08/04 07:11:49;;;;;;;5.05;2.45;;;19.40;99.90;;;;;;5007982;28;20219;-81
2023/08/04 07:14:16;;;;;;;4.88;2.75;;;19.50;99.90;;;;;;5002710;28;20210;-82
2023/08/04 07:16:46;;;;;;;3.95;2.30;;;19.50;99.90;;;;;;5009279;28;20604;-79
2023/08/04 07:19:14;;;;;;;4.40;2.10;;;19.80;99.90;;;;;;4998801;28;20206;-80
2023/08/04 07:21:42;;;;;;;3.35;1.77;;;20.00;99.90;;;;;;5002001;28;20586;-80
2023/08/04 07:24:11;;;;;;;4.03;2.33;;;20.40;99.90;;;;;;4990465;28;20569;-80
2023/08/04 07:26:38;;;;;;;3.70;1.95;;;20.70;99.90;;;;;;5006982;28;20297;-80
2023/08/04 07:29:05;;;;;;;3.78;1.85;;;21.00;99.90;;;;;;4999598;28;20207;-81
2023/08/04 07:31:32;;;;;;;4.20;1.88;;;21.20;99.90;;;;;;4991265;28;20222;-81
2023/08/04 07:33:59;;;;;;;2.95;2.00;;;21.40;99.90;;;;;;5008484;28;20207;-83
2023/08/04 07:36:26;;;;;;;2.10;1.30;;;21.50;99.90;;;;;;5010015;28;20253;-81
2023/08/04 07:38:54;;;;;;;2.67;1.80;;;21.50;99.90;;;;;;5008647;28;20202;-83
2023/08/04 07:41:22;;;;;;;2.60;1.45;;;21.50;99.90;;;;;;5008026;28;20313;-81
2023/08/04 07:43:48;;;;;;;3.42;1.70;;;21.60;99.90;;;;;;5008317;28;20531;-80
2023/08/04 07:46:33;;;;;;;1.67;1.58;;;21.50;99.90;;;;;;5008926;28;20198;-82
2023/08/04 07:49:00;;;;;;;1.65;1.17;;;21.50;99.90;;;;;;4991003;28;20190;-83
2023/08/04 07:51:29;;;;;;;2.28;0.90;;;;;;;;;;5006520;28;20230;-82
2023/08/04 07:53:55;;;;;;;2.13;1.27;;;22.00;99.90;;;;;;5003422;28;20206;-83
2023/08/04 07:56:22;;;;;;;1.80;1.10;;;22.30;99.90;;;;;;4975287;28;20199;-82
2023/08/04 07:58:49;;;;;;;2.72;1.30;;;22.40;99.90;;;;;;5004133;28;20215;-82
2023/08/04 08:01:16;;;;;;;1.85;1.20;;;22.30;99.90;;;;;;5008771;28;20207;-82
2023/08/04 08:03:43;;;;;;;1.85;1.20;;;22.20;99.90;;;;;;5008158;28;20199;-81
2023/08/04 08:06:10;;;;;;;2.72;1.55;;;22.10;99.90;;;;;;5007045;28;20198;-81
2023/08/04 08:08:37;;;;;;;1.98;1.00;;;22.40;99.90;;;;;;4997730;28;20603;-81
2023/08/04 08:11:09;;;;;;;2.72;1.23;;;23.00;99.90;;;;;;5006546;28;20230;-82
2023/08/04 08:13:37;;;;;;;2.03;1.10;;;23.70;99.90;;;;;;5004723;28;20200;-82
2023/08/04 08:16:15;;;;;;;1.33;0.80;;;24.10;99.90;;;;;;5003727;28;20195;-82
2023/08/04 08:18:45;;;;;;;3.35;1.50;;;24.50;99.90;;;;;;5005863;28;20199;-83
2023/08/04 08:21:13;;;;;;;1.10;1.00;;;24.60;99.90;;;;;;4990223;28;20295;-82
2023/08/04 08:23:40;;;;;;;1.10;1.00;;;24.40;99.90;;;;;;4998450;28;20219;-82
2023/08/04 08:26:07;;;;;;;1.15;0.90;;;24.30;99.90;;;;;;5004617;28;20304;-81
2023/08/04 08:28:33;;;;;;;1.23;0.95;;;24.10;99.90;;;;;;5008366;28;20308;-81
2023/08/04 08:31:00;;;;;;;1.67;1.00;;;24.00;99.90;;;;;;5004773;28;20242;-82
2023/08/04 08:33:27;;;;;;;2.15;0.80;;;23.70;99.90;;;;;;4977610;28;20206;-81
2023/08/04 08:35:55;;;;;;;0.98;0.88;;;23.50;99.90;;;;;;5009826;28;20301;-82
2023/08/04 08:38:22;;;;;;;1.48;1.00;;;23.30;99.90;;;;;;4990890;28;20683;-81
2023/08/04 08:40:49;;;;;;;2.63;1.00;;;23.20;99.90;;;;;;4993478;28;20218;-80
2023/08/04 08:43:16;;;;;;;2.97;1.10;;;23.20;99.90;;;;;;5011756;28;20222;-81
2023/08/04 08:45:44;;;;;;;2.70;0.90;;;23.50;99.90;;;;;;5011949;28;20210;-81
2023/08/04 08:48:11;;;;;;;3.70;1.20;;;23.80;99.90;;;;;;4993618;28;20210;-82
2023/08/04 08:50:40;;;;;;;1.42;1.00;;;23.90;99.90;;;;;;4993873;28;20845;-80
2023/08/04 08:53:13;;;;;;;2.30;1.13;;;23.70;99.90;;;;;;4993535;28;20292;-80
2023/08/04 08:55:40;;;;;;;1.35;0.90;;;23.40;99.90;;;;;;5003248;28;20206;-80
2023/08/04 08:58:09;;;;;;;2.13;1.50;;;23.10;99.90;;;;;;5008085;28;20214;-80
2023/08/04 09:00:36;;;;;;;2.03;1.00;;;22.80;99.90;;;;;;5011308;28;20616;-82
2023/08/04 09:03:04;;;;;;;2.72;0.88;;;22.60;99.90;;;;;;5011400;28;20217;-81
2023/08/04 09:05:33;;;;;;;1.25;1.00;;;22.40;99.90;;;;;;5011019;28;20202;-81
2023/08/04 09:08:01;;;;;;;1.77;0.85;;;22.30;99.90;;;;;;5009346;28;20293;-80
2023/08/04 09:10:27;;;;;;;1.23;0.90;;;22.30;99.90;;;;;;5007244;28;20223;-82
2023/08/04 09:12:56;;;;;;;0.77;0.77;;;22.40;99.90;;;;;;5003518;28;20227;-81
2023/08/04 09:15:46;;;;;;;2.40;1.15;;;22.60;99.90;;;;;;5012162;28;20298;-81
2023/08/04 09:18:33;;;;;;;1.63;0.73;;;22.70;99.90;;;;;;4992466;28;20206;-79
2023/08/04 09:21:12;;;;;;;1.88;0.70;;;22.60;99.90;;;;;;4992368;28;20547;-80
2023/08/04 09:23:45;;;;;;;0.73;0.70;;;22.50;99.90;;;;;;5011487;28;20799;-80
2023/08/04 09:26:12;;;;;;;1.50;0.80;;;22.40;99.90;;;;;;5010507;28;20203;-80
2023/08/04 09:28:39;;;;;;;3.78;1.00;;;22.20;99.90;;;;;;5011470;28;20207;-80
2023/08/04 09:31:08;;;;;;;1.55;0.88;;;22.20;99.90;;;;;;4993612;28;20785;-81
2023/08/04 09:33:38;;;;;;;1.58;0.80;;;22.20;99.90;;;;;;5012159;28;20203;-80
2023/08/04 09:36:18;;;;;;;2.13;1.00;;;22.30;99.90;;;;;;5010978;28;20198;-82
2023/08/04 09:38:45;;;;;;;1.70;0.90;;;22.20;99.90;;;;;;5030047;28;20210;-80
2023/08/04 09:41:14;;;;;;;2.90;0.88;;;22.20;99.90;;;;;;5025333;28;20214;-79
2023/08/04 09:43:48;;;;;;;3.42;0.88;;;22.30;99.90;;;;;;5031593;28;20277;-81
2023/08/04 09:46:16;;;;;;;1.52;1.13;;;22.30;99.90;;;;;;5031542;28;20190;-80
2023/08/04 09:48:44;;;;;;;1.85;0.95;;;22.50;99.90;;;;;;5014265;28;20211;-84
2023/08/04 09:51:13;;;;;;;1.73;0.85;;;22.70;99.90;;;;;;5007099;28;20705;-81
2023/08/04 09:53:51;;;;;;;2.40;0.98;;;22.80;99.90;;;;;;5008213;28;20457;-81
2023/08/04 09:56:19;;;;;;;1.83;1.10;;;22.80;99.90;;;;;;4989735;28;20724;-83
2023/08/04 09:58:47;;;;;;;1.83;1.08;;;22.50;99.90;;;;;;5010792;28;20577;-80
2023/08/04 10:01:16;;;;;;;1.98;1.10;;;22.70;99.90;;;;;;5002317;28;20202;-82
2023/08/04 10:03:51;;;;;;;1.65;0.90;;;22.70;99.90;;;;;;5006973;28;20715;-81
2023/08/04 10:06:19;;;;;;;1.52;1.15;;;22.90;99.90;;;;;;4993003;28;20198;-82
2023/08/04 10:08:48;;;;;;;1.45;1.02;;;22.90;99.90;;;;;;4997340;28;20605;-81
2023/08/04 10:11:15;;;;;;;2.08;1.10;;;23.00;99.90;;;;;;5007748;28;20214;-82
2023/08/04 10:13:47;;;;;;;1.63;1.00;;;22.90;99.90;;;;;;4992442;28;20239;-84
2023/08/04 10:16:17;;;;;;;2.00;1.10;;;22.90;99.90;;;;;;4992830;28;20210;-79
2023/08/04 10:18:52;;;;;;;3.75;1.27;;;22.90;99.90;;;;;;5010093;28;20293;-83
2023/08/04 10:21:35;;;;;;;3.63;1.30;;;23.10;99.90;;;;;;4990057;28;20195;-82
2023/08/04 10:24:08;;;;;;;2.28;1.35;;;23.20;99.90;;;;;;4992323;28;20206;-84
2023/08/04 10:26:48;;;;;;;2.83;1.60;;;23.40;99.90;;;;;;5009127;28;20225;-82
2023/08/04 10:29:15;;;;;;;2.20;1.20;;;23.20;99.90;;;;;;4992662;28;20290;-80
2023/08/04 10:31:57;;;;;;;1.42;1.17;;;22.90;99.90;;;;;;4991298;28;20222;-80
2023/08/04 10:34:29;;;;;;;3.03;1.30;;;22.40;99.90;;;;;;4991654;28;20198;-82
2023/08/04 10:37:09;;;;;;;7.80;1.45;;;22.00;99.90;;;;;;5009388;28;20202;-81
2023/08/04 10:39:42;;;;;;;2.80;1.30;;;21.70;99.90;;;;;;4989264;28;20632;-79
2023/08/04 10:42:09;;;;;;;5.88;2.00;;;21.70;99.90;;;;;;5002442;28;20701;-82
2023/08/04 10:44:49;;;;;;;2.35;1.17;;;21.40;99.90;;;;;;5003148;28;20214;-81
2023/08/04 10:47:28;;;;;;;2.85;1.50;;;21.30;99.90;;;;;;4998822;28;20207;-82
2023/08/04 10:49:57;;;;;;;3.75;1.45;;;21.30;99.90;;;;;;5007711;28;20229;-82
2023/08/04 10:52:25;;;;;;;3.72;1.38;;;21.30;99.90;;;;;;4987693;28;20225;-80
2023/08/04 10:54:53;;;;;;;4.13;1.48;;;21.30;99.90;;;;;;4986814;28;20734;-81
2023/08/04 10:57:24;;;;;;;3.35;1.45;;;21.30;99.90;;;;;;5004261;28;20214;-80
2023/08/04 10:59:51;;;;;;;5.68;1.42;;;21.30;99.90;;;;;;4989067;28;20302;-81
2023/08/04 11:02:19;;;;;;;3.03;1.70;;;21.20;99.90;;;;;;4985346;28;20237;-79
2023/08/04 11:04:47;;;;;;;3.42;1.30;;;21.00;99.90;;;;;;4985528;28;20210;-80
2023/08/04 11:07:18;;;;;;;3.45;1.70;;;21.10;99.90;;;;;;4982987;28;20252;-79
2023/08/04 11:09:46;;;;;;;2.40;1.33;;;21.10;99.90;;;;;;5008059;28;20202;-80
2023/08/04 11:12:21;;;;;;;1.83;1.40;;;21.30;99.90;;;;;;4998852;28;20237;-80
2023/08/04 11:14:51;;;;;;;1.77;1.38;;;21.50;99.90;;;;;;4997038;28;20225;-80
2023/08/04 11:17:20;;;;;;;3.72;1.63;;;21.80;99.90;;;;;;4996467;28;20695;-77
2023/08/04 11:19:51;;;;;;;3.63;1.38;;;21.90;99.90;;;;;;4993011;28;20214;-80
2023/08/04 11:22:22;;;;;;;2.20;1.40;;;22.20;99.90;;;;;;4996184;28;20203;-79
2023/08/04 11:24:51;;;;;;;2.60;1.50;;;22.30;99.90;;;;;;5001614;28;20280;-79
2023/08/04 11:27:20;;;;;;;3.75;1.63;;;22.50;99.90;;;;;;4997817;28;20751;-79
2023/08/04 11:29:54;;;;;;;5.43;1.50;;;22.60;99.90;;;;;;5001448;28;20583;-77
2023/08/04 11:32:22;;;;;;;3.58;1.52;;;23.00;99.90;;;;;;5000599;28;20234;-79
2023/08/04 11:34:49;;;;;;;4.28;1.50;;;23.30;99.90;;;;;;4996493;28;20199;-77
2023/08/04 11:37:22;;;;;;;3.95;1.23;;;23.50;99.90;;;;;;4993815;28;20230;-80
2023/08/04 11:39:49;;;;;;;3.03;1.35;;;23.70;99.90;;;;;;5002715;28;20210;-78
2023/08/04 11:42:16;;;;;;;5.47;1.52;;;23.80;99.90;;;;;;4997829;28;20222;-78
2023/08/04 11:44:44;;;;;;;3.65;1.23;;;23.70;99.90;;;;;;4999982;28;20203;-79
2023/08/04 11:47:13;;;;;;;6.50;1.88;;;23.80;99.90;;;;;;4998435;28;20198;-79
2023/08/04 11:49:41;;;;;;;2.97;1.27;;;23.90;99.90;;;;;;4998643;28;20210;-82
2023/08/04 11:52:09;;;;;;;2.15;1.13;;;23.90;99.90;;;;;;4998809;28;20219;-80
2023/08/04 11:54:49;;;;;;;1.67;0.90;;;23.70;99.90;;;;;;5001781;28;20458;-79
2023/08/04 11:57:18;;;;;;;2.53;1.13;;;23.30;99.90;;;;;;4999041;28;20215;-79
2023/08/04 11:59:48;;;;;;;2.58;0.88;;;23.00;99.90;;;;;;5001198;28;20558;-79
2023/08/04 12:02:16;;;;;;;1.52;1.10;;;22.80;99.90;;;;;;4999588;28;20672;-80
2023/08/04 12:04:43;;;;;;;2.55;1.17;;;22.60;99.90;;;;;;5002134;28;20660;-78
2023/08/04 12:07:11;;;;;;;3.60;1.23;;;22.50;99.90;;;;;;5001511;28;20242;-79
2023/08/04 12:09:38;;;;;;;3.28;1.10;;;22.40;99.90;;;;;;4985869;28;20205;-78
2023/08/04 12:12:06;;;;;;;2.10;1.08;;;22.40;99.90;;;;;;5006786;28;20258;-80
2023/08/04 12:14:34;;;;;;;1.52;1.00;;;22.30;99.90;;;;;;5003158;28;20680;-78
2023/08/04 12:17:43;;;;;;;1.88;1.15;;;22.30;99.90;;;;;;5000607;28;20195;-77
2023/08/04 12:20:12;;;;;;;3.17;1.38;;;22.40;99.90;;;;;;4996368;28;20199;-79
2023/08/04 12:22:41;;;;;;;4.35;1.25;;;22.40;99.90;;;;;;4984129;28;20561;-78
2023/08/04 12:25:09;;;;;;;2.88;1.23;;;22.50;99.90;;;;;;5001081;28;20206;-80
2023/08/04 12:27:36;;;;;;;2.90;1.30;;;22.60;99.90;;;;;;5009595;28;20207;-76
2023/08/04 12:30:04;;;;;;;3.10;1.20;;;22.60;99.90;;;;;;4986322;28;20210;-78
2023/08/04 12:32:31;;;;;;;2.72;1.17;;;22.70;99.90;;;;;;5000492;28;20594;-78
2023/08/04 12:34:58;;;;;;;4.68;1.10;;;22.80;99.90;;;;;;4981730;28;20199;-79
2023/08/04 12:37:25;;;;;;;1.48;1.08;;;23.10;99.90;;;;;;4993918;28;20200;-80
2023/08/04 12:39:53;;;;;;;1.75;1.13;;;23.40;99.90;;;;;;5003041;28;20210;-80
2023/08/04 12:42:23;;;;;;;2.75;1.10;;;23.80;99.90;;;;;;4997292;28;20237;-78
2023/08/04 12:44:50;;;;;;;2.47;1.33;;;24.10;99.90;;;;;;4997741;28;20195;-81
2023/08/04 12:47:17;;;;;;;2.35;1.20;;;24.40;99.90;;;;;;4995689;28;20207;-78
2023/08/04 12:49:44;;;;;;;4.65;1.20;;;24.40;99.90;;;;;;5001547;28;20675;-78
2023/08/04 12:52:11;;;;;;;1.27;0.90;;;24.00;99.90;;;;;;5006680;28;20683;-79